Emerado, North Dakota
Current Conditions -  °F | °C
As of 1:58 AM on Friday 31 Oct 2014 (Local Time) from KRDR Reporting Station
Clear Clear  
Wind Chill:   Ceiling: Unl
Heat Index: 18°   Visibility: 10mi
Dew Point: 14°   Wind: 6mph
Humidity: 85%   Direction: 350°N
Pressure: 30.61"   Gusts: NA
Location:  47.92°N, 97.37°W
Report Text: KRDR 310658Z AUTO 35005KT 10SM CLR M08/M10 A3061 RMK AO2 SLP386 T10801101
Loading
Personal Weather Stations






























Interactive Weather Map
Tropical Storm Tracking
New forecast layout! Learn more

10-Day Weather Forecast

Advertisements
Track Severe Weather on mobile